sensor_id;sensor_type;location;lat;lon;timestamp;temperature;humidity
43520;DHT22;46848;51.980;5.918;2023-05-14T00:01:34;17.20;62.70
43520;DHT22;46848;51.980;5.918;2023-05-14T00:04:01;17.20;62.70
43520;DHT22;46848;51.980;5.918;2023-05-14T00:06:27;17.10;63.20
43520;DHT22;46848;51.980;5.918;2023-05-14T00:08:52;17.00;63.40
43520;DHT22;46848;51.980;5.918;2023-05-14T00:11:18;17.00;63.60
43520;DHT22;46848;51.980;5.918;2023-05-14T00:13:44;16.90;63.70
43520;DHT22;46848;51.980;5.918;2023-05-14T00:16:10;16.90;63.60
43520;DHT22;46848;51.980;5.918;2023-05-14T00:18:36;16.80;64.00
43520;DHT22;46848;51.980;5.918;2023-05-14T00:21:01;16.80;64.00
43520;DHT22;46848;51.980;5.918;2023-05-14T00:23:27;16.80;63.80
43520;DHT22;46848;51.980;5.918;2023-05-14T00:25:53;16.80;63.80
43520;DHT22;46848;51.980;5.918;2023-05-14T00:28:19;16.80;63.80
43520;DHT22;46848;51.980;5.918;2023-05-14T00:30:45;16.80;63.80
43520;DHT22;46848;51.980;5.918;2023-05-14T00:33:10;16.70;63.80
43520;DHT22;46848;51.980;5.918;2023-05-14T00:35:36;16.80;63.90
43520;DHT22;46848;51.980;5.918;2023-05-14T00:38:02;16.70;64.00
43520;DHT22;46848;51.980;5.918;2023-05-14T00:40:28;16.60;64.40
43520;DHT22;46848;51.980;5.918;2023-05-14T00:42:54;16.50;65.10
43520;DHT22;46848;51.980;5.918;2023-05-14T00:45:20;16.40;65.20
43520;DHT22;46848;51.980;5.918;2023-05-14T00:47:50;16.40;65.30
43520;DHT22;46848;51.980;5.918;2023-05-14T00:50:16;16.30;65.10
43520;DHT22;46848;51.980;5.918;2023-05-14T00:52:42;16.40;65.00
43520;DHT22;46848;51.980;5.918;2023-05-14T00:55:08;16.40;64.80
43520;DHT22;46848;51.980;5.918;2023-05-14T00:57:37;16.40;64.70
43520;DHT22;46848;51.980;5.918;2023-05-14T01:00:04;16.50;65.00
43520;DHT22;46848;51.980;5.918;2023-05-14T01:02:30;16.40;64.90
43520;DHT22;46848;51.980;5.918;2023-05-14T01:04:56;16.30;65.20
43520;DHT22;46848;51.980;5.918;2023-05-14T01:10:26;16.40;65.10
43520;DHT22;46848;51.980;5.918;2023-05-14T01:13:33;16.40;65.00
43520;DHT22;46848;51.980;5.918;2023-05-14T01:16:03;16.40;65.20
43520;DHT22;46848;51.980;5.918;2023-05-14T01:18:30;16.30;65.00
43520;DHT22;46848;51.980;5.918;2023-05-14T01:20:56;16.40;65.00
43520;DHT22;46848;51.980;5.918;2023-05-14T01:23:22;16.40;65.00
43520;DHT22;46848;51.980;5.918;2023-05-14T01:25:48;16.50;64.90
43520;DHT22;46848;51.980;5.918;2023-05-14T01:28:18;16.50;64.80
43520;DHT22;46848;51.980;5.918;2023-05-14T01:31:11;16.50;64.70
43520;DHT22;46848;51.980;5.918;2023-05-14T01:33:41;16.50;64.70
43520;DHT22;46848;51.980;5.918;2023-05-14T01:36:08;16.50;64.90
43520;DHT22;46848;51.980;5.918;2023-05-14T01:38:34;16.50;64.90
43520;DHT22;46848;51.980;5.918;2023-05-14T01:41:01;16.50;64.90
43520;DHT22;46848;51.980;5.918;2023-05-14T01:43:35;16.40;64.90
43520;DHT22;46848;51.980;5.918;2023-05-14T01:46:00;16.40;65.00
43520;DHT22;46848;51.980;5.918;2023-05-14T01:48:26;16.40;65.30
43520;DHT22;46848;51.980;5.918;2023-05-14T01:50:54;16.30;65.30
43520;DHT22;46848;51.980;5.918;2023-05-14T01:53:19;16.30;65.50
43520;DHT22;46848;51.980;5.918;2023-05-14T01:55:45;16.20;65.90
43520;DHT22;46848;51.980;5.918;2023-05-14T01:58:10;16.10;66.10
43520;DHT22;46848;51.980;5.918;2023-05-14T02:00:36;16.10;66.60
43520;DHT22;46848;51.980;5.918;2023-05-14T02:03:02;16.00;66.60
43520;DHT22;46848;51.980;5.918;2023-05-14T02:05:28;16.00;66.50
43520;DHT22;46848;51.980;5.918;2023-05-14T02:07:53;16.00;66.30
43520;DHT22;46848;51.980;5.918;2023-05-14T02:10:19;16.10;66.30
43520;DHT22;46848;51.980;5.918;2023-05-14T02:12:45;16.10;66.20
43520;DHT22;46848;51.980;5.918;2023-05-14T02:15:10;16.10;66.20
43520;DHT22;46848;51.980;5.918;2023-05-14T02:17:36;16.00;66.30
43520;DHT22;46848;51.980;5.918;2023-05-14T02:20:02;16.00;66.70
43520;DHT22;46848;51.980;5.918;2023-05-14T02:22:28;15.90;66.70
43520;DHT22;46848;51.980;5.918;2023-05-14T02:24:54;15.90;66.80
43520;DHT22;46848;51.980;5.918;2023-05-14T02:27:19;15.90;66.70
43520;DHT22;46848;51.980;5.918;2023-05-14T02:29:45;16.00;66.60
43520;DHT22;46848;51.980;5.918;2023-05-14T02:32:11;16.00;66.60
43520;DHT22;46848;51.980;5.918;2023-05-14T02:34:36;16.00;66.70
43520;DHT22;46848;51.980;5.918;2023-05-14T02:37:03;16.00;66.70
43520;DHT22;46848;51.980;5.918;2023-05-14T02:39:28;16.00;66.70
43520;DHT22;46848;51.980;5.918;2023-05-14T02:41:54;16.00;67.00
43520;DHT22;46848;51.980;5.918;2023-05-14T02:44:19;15.90;66.90
43520;DHT22;46848;51.980;5.918;2023-05-14T02:46:45;15.90;66.80
43520;DHT22;46848;51.980;5.918;2023-05-14T02:49:11;15.90;66.60
43520;DHT22;46848;51.980;5.918;2023-05-14T02:51:36;16.00;66.70
43520;DHT22;46848;51.980;5.918;2023-05-14T02:54:02;15.90;66.90
43520;DHT22;46848;51.980;5.918;2023-05-14T02:56:28;15.90;67.00
43520;DHT22;46848;51.980;5.918;2023-05-14T02:58:53;15.90;67.10
43520;DHT22;46848;51.980;5.918;2023-05-14T03:01:19;15.80;67.00
43520;DHT22;46848;51.980;5.918;2023-05-14T03:03:44;15.80;67.00
43520;DHT22;46848;51.980;5.918;2023-05-14T03:06:10;15.80;67.00
43520;DHT22;46848;51.980;5.918;2023-05-14T03:08:36;15.90;67.00
43520;DHT22;46848;51.980;5.918;2023-05-14T03:11:02;15.80;67.00
43520;DHT22;46848;51.980;5.918;2023-05-14T03:13:28;15.80;67.00
43520;DHT22;46848;51.980;5.918;2023-05-14T03:15:53;15.80;67.00
43520;DHT22;46848;51.980;5.918;2023-05-14T03:18:20;15.80;67.00
43520;DHT22;46848;51.980;5.918;2023-05-14T03:20:46;15.80;67.20
43520;DHT22;46848;51.980;5.918;2023-05-14T03:23:12;15.70;67.50
43520;DHT22;46848;51.980;5.918;2023-05-14T03:25:37;15.60;67.60
43520;DHT22;46848;51.980;5.918;2023-05-14T03:28:03;15.60;67.80
43520;DHT22;46848;51.980;5.918;2023-05-14T03:30:29;15.50;68.30
43520;DHT22;46848;51.980;5.918;2023-05-14T03:32:56;15.40;68.40
43520;DHT22;46848;51.980;5.918;2023-05-14T03:35:21;15.40;68.40
43520;DHT22;46848;51.980;5.918;2023-05-14T03:37:47;15.40;68.40
43520;DHT22;46848;51.980;5.918;2023-05-14T03:40:12;15.40;68.40
43520;DHT22;46848;51.980;5.918;2023-05-14T03:42:38;15.40;68.30
43520;DHT22;46848;51.980;5.918;2023-05-14T03:45:04;15.40;68.50
43520;DHT22;46848;51.980;5.918;2023-05-14T03:47:30;15.30;68.70
43520;DHT22;46848;51.980;5.918;2023-05-14T03:49:56;15.30;68.80
43520;DHT22;46848;51.980;5.918;2023-05-14T03:52:22;15.20;68.80
43520;DHT22;46848;51.980;5.918;2023-05-14T03:54:47;15.10;69.40
43520;DHT22;46848;51.980;5.918;2023-05-14T03:57:13;15.10;69.70
43520;DHT22;46848;51.980;5.918;2023-05-14T03:59:38;15.00;69.70
43520;DHT22;46848;51.980;5.918;2023-05-14T04:02:04;14.90;70.10
43520;DHT22;46848;51.980;5.918;2023-05-14T04:04:30;14.90;70.20
43520;DHT22;46848;51.980;5.918;2023-05-14T04:06:55;14.90;70.30
43520;DHT22;46848;51.980;5.918;2023-05-14T04:09:21;14.90;70.30
43520;DHT22;46848;51.980;5.918;2023-05-14T04:11:47;14.80;70.20
43520;DHT22;46848;51.980;5.918;2023-05-14T04:14:13;14.90;70.50
43520;DHT22;46848;51.980;5.918;2023-05-14T04:16:39;14.90;70.60
43520;DHT22;46848;51.980;5.918;2023-05-14T04:19:05;14.80;70.80
43520;DHT22;46848;51.980;5.918;2023-05-14T04:21:30;14.70;71.20
43520;DHT22;46848;51.980;5.918;2023-05-14T04:23:56;14.70;71.10
43520;DHT22;46848;51.980;5.918;2023-05-14T04:26:22;14.70;71.00
43520;DHT22;46848;51.980;5.918;2023-05-14T04:28:47;14.70;70.90
43520;DHT22;46848;51.980;5.918;2023-05-14T04:31:14;14.70;71.10
43520;DHT22;46848;51.980;5.918;2023-05-14T04:33:40;14.70;71.00
43520;DHT22;46848;51.980;5.918;2023-05-14T04:36:05;14.70;70.90
43520;DHT22;46848;51.980;5.918;2023-05-14T04:38:31;14.70;70.80
43520;DHT22;46848;51.980;5.918;2023-05-14T04:40:57;14.70;71.00
43520;DHT22;46848;51.980;5.918;2023-05-14T04:43:22;14.70;71.00
43520;DHT22;46848;51.980;5.918;2023-05-14T04:45:48;14.70;70.90
43520;DHT22;46848;51.980;5.918;2023-05-14T04:48:14;14.80;71.40
43520;DHT22;46848;51.980;5.918;2023-05-14T04:50:39;14.80;71.20
43520;DHT22;46848;51.980;5.918;2023-05-14T04:53:05;14.70;71.50
43520;DHT22;46848;51.980;5.918;2023-05-14T04:55:30;14.60;72.30
43520;DHT22;46848;51.980;5.918;2023-05-14T04:57:56;14.50;72.70
43520;DHT22;46848;51.980;5.918;2023-05-14T05:00:21;14.50;72.50
43520;DHT22;46848;51.980;5.918;2023-05-14T05:02:47;14.50;72.50
43520;DHT22;46848;51.980;5.918;2023-05-14T05:05:13;14.60;72.40
43520;DHT22;46848;51.980;5.918;2023-05-14T05:07:38;14.70;72.30
43520;DHT22;46848;51.980;5.918;2023-05-14T05:10:04;14.70;72.50
43520;DHT22;46848;51.980;5.918;2023-05-14T05:12:30;14.70;72.90
43520;DHT22;46848;51.980;5.918;2023-05-14T05:14:56;14.80;72.90
43520;DHT22;46848;51.980;5.918;2023-05-14T05:17:22;14.70;73.00
43520;DHT22;46848;51.980;5.918;2023-05-14T05:19:48;14.70;73.10
43520;DHT22;46848;51.980;5.918;2023-05-14T05:22:14;14.80;72.80
43520;DHT22;46848;51.980;5.918;2023-05-14T05:24:39;14.80;72.60
43520;DHT22;46848;51.980;5.918;2023-05-14T05:27:05;14.90;72.20
43520;DHT22;46848;51.980;5.918;2023-05-14T05:29:31;15.10;72.50
43520;DHT22;46848;51.980;5.918;2023-05-14T05:31:57;15.10;72.30
43520;DHT22;46848;51.980;5.918;2023-05-14T05:34:22;15.10;72.20
43520;DHT22;46848;51.980;5.918;2023-05-14T05:36:48;15.20;71.90
43520;DHT22;46848;51.980;5.918;2023-05-14T05:39:13;15.30;71.60
43520;DHT22;46848;51.980;5.918;2023-05-14T05:41:39;15.40;71.40
43520;DHT22;46848;51.980;5.918;2023-05-14T05:44:05;15.50;71.20
43520;DHT22;46848;51.980;5.918;2023-05-14T05:46:30;15.60;71.50
43520;DHT22;46848;51.980;5.918;2023-05-14T05:48:56;15.70;72.00
43520;DHT22;46848;51.980;5.918;2023-05-14T05:51:22;15.60;71.40
43520;DHT22;46848;51.980;5.918;2023-05-14T05:53:47;15.70;71.10
43520;DHT22;46848;51.980;5.918;2023-05-14T05:56:13;15.80;70.90
43520;DHT22;46848;51.980;5.918;2023-05-14T05:58:39;16.00;70.70
43520;DHT22;46848;51.980;5.918;2023-05-14T06:01:04;16.20;70.50
43520;DHT22;46848;51.980;5.918;2023-05-14T06:03:30;16.30;70.20
43520;DHT22;46848;51.980;5.918;2023-05-14T06:05:56;16.50;69.90
43520;DHT22;46848;51.980;5.918;2023-05-14T06:08:22;16.60;69.80
43520;DHT22;46848;51.980;5.918;2023-05-14T06:10:47;16.60;69.70
43520;DHT22;46848;51.980;5.918;2023-05-14T06:13:13;16.60;69.70
43520;DHT22;46848;51.980;5.918;2023-05-14T06:15:38;16.80;69.50
43520;DHT22;46848;51.980;5.918;2023-05-14T06:18:04;16.90;69.10
43520;DHT22;46848;51.980;5.918;2023-05-14T06:20:30;17.10;68.80
43520;DHT22;46848;51.980;5.918;2023-05-14T06:22:55;17.20;68.50
43520;DHT22;46848;51.980;5.918;2023-05-14T06:25:21;17.30;68.40
43520;DHT22;46848;51.980;5.918;2023-05-14T06:27:47;17.40;68.10
43520;DHT22;46848;51.980;5.918;2023-05-14T06:30:13;17.60;67.80
43520;DHT22;46848;51.980;5.918;2023-05-14T06:32:38;17.80;67.30
43520;DHT22;46848;51.980;5.918;2023-05-14T06:35:04;18.10;66.90
43520;DHT22;46848;51.980;5.918;2023-05-14T06:37:30;18.30;66.40
43520;DHT22;46848;51.980;5.918;2023-05-14T06:39:56;18.50;66.00
43520;DHT22;46848;51.980;5.918;2023-05-14T06:42:22;18.70;65.50
43520;DHT22;46848;51.980;5.918;2023-05-14T06:44:47;18.90;65.10
43520;DHT22;46848;51.980;5.918;2023-05-14T06:47:13;19.10;65.30
43520;DHT22;46848;51.980;5.918;2023-05-14T06:49:38;19.30;64.00
43520;DHT22;46848;51.980;5.918;2023-05-14T06:52:04;19.40;63.90
43520;DHT22;46848;51.980;5.918;2023-05-14T06:54:30;19.60;63.20
43520;DHT22;46848;51.980;5.918;2023-05-14T06:56:56;19.70;62.50
43520;DHT22;46848;51.980;5.918;2023-05-14T06:59:22;19.90;62.10
43520;DHT22;46848;51.980;5.918;2023-05-14T07:01:47;20.10;61.90
43520;DHT22;46848;51.980;5.918;2023-05-14T07:04:13;20.40;61.50
43520;DHT22;46848;51.980;5.918;2023-05-14T07:06:38;20.60;60.90
43520;DHT22;46848;51.980;5.918;2023-05-14T07:09:04;20.80;60.00
43520;DHT22;46848;51.980;5.918;2023-05-14T07:11:31;20.90;59.50
43520;DHT22;46848;51.980;5.918;2023-05-14T07:13:56;21.10;59.10
43520;DHT22;46848;51.980;5.918;2023-05-14T07:16:22;21.20;58.50
43520;DHT22;46848;51.980;5.918;2023-05-14T07:18:47;21.40;58.40
43520;DHT22;46848;51.980;5.918;2023-05-14T07:21:13;21.60;58.10
43520;DHT22;46848;51.980;5.918;2023-05-14T07:23:39;21.70;57.90
43520;DHT22;46848;51.980;5.918;2023-05-14T07:26:05;21.90;57.60
43520;DHT22;46848;51.980;5.918;2023-05-14T07:28:31;22.00;57.20
43520;DHT22;46848;51.980;5.918;2023-05-14T07:30:56;22.10;56.90
43520;DHT22;46848;51.980;5.918;2023-05-14T07:33:23;22.10;56.90
43520;DHT22;46848;51.980;5.918;2023-05-14T07:35:48;22.30;56.90
43520;DHT22;46848;51.980;5.918;2023-05-14T07:38:15;22.50;56.70
43520;DHT22;46848;51.980;5.918;2023-05-14T07:40:41;22.70;56.50
43520;DHT22;46848;51.980;5.918;2023-05-14T07:43:07;23.00;56.20
43520;DHT22;46848;51.980;5.918;2023-05-14T07:45:33;23.30;55.80
43520;DHT22;46848;51.980;5.918;2023-05-14T07:48:00;23.60;55.40
43520;DHT22;46848;51.980;5.918;2023-05-14T07:50:26;23.90;55.00
43520;DHT22;46848;51.980;5.918;2023-05-14T07:52:51;24.20;54.60
43520;DHT22;46848;51.980;5.918;2023-05-14T07:55:17;24.40;54.30
43520;DHT22;46848;51.980;5.918;2023-05-14T07:57:42;24.60;54.00
43520;DHT22;46848;51.980;5.918;2023-05-14T08:00:08;24.90;53.50
43520;DHT22;46848;51.980;5.918;2023-05-14T08:02:34;25.10;53.30
43520;DHT22;46848;51.980;5.918;2023-05-14T08:04:59;25.30;52.90
43520;DHT22;46848;51.980;5.918;2023-05-14T08:07:25;25.50;52.60
43520;DHT22;46848;51.980;5.918;2023-05-14T08:09:53;25.70;52.10
43520;DHT22;46848;51.980;5.918;2023-05-14T08:12:19;25.80;51.50
43520;DHT22;46848;51.980;5.918;2023-05-14T08:14:45;25.90;51.20
43520;DHT22;46848;51.980;5.918;2023-05-14T08:17:10;25.70;50.70
43520;DHT22;46848;51.980;5.918;2023-05-14T08:19:36;25.70;51.20
43520;DHT22;46848;51.980;5.918;2023-05-14T08:22:01;25.80;51.50
43520;DHT22;46848;51.980;5.918;2023-05-14T08:24:28;26.00;51.30
43520;DHT22;46848;51.980;5.918;2023-05-14T08:26:55;26.30;51.10
43520;DHT22;46848;51.980;5.918;2023-05-14T08:29:21;26.40;50.50
43520;DHT22;46848;51.980;5.918;2023-05-14T08:31:48;26.50;50.10
43520;DHT22;46848;51.980;5.918;2023-05-14T08:34:14;26.60;49.90
43520;DHT22;46848;51.980;5.918;2023-05-14T08:36:40;26.70;50.00
43520;DHT22;46848;51.980;5.918;2023-05-14T08:39:06;26.80;49.70
43520;DHT22;46848;51.980;5.918;2023-05-14T08:41:34;26.80;49.70
43520;DHT22;46848;51.980;5.918;2023-05-14T08:44:22;26.90;49.80
43520;DHT22;46848;51.980;5.918;2023-05-14T08:46:51;26.80;49.30
43520;DHT22;46848;51.980;5.918;2023-05-14T08:49:31;26.80;49.30
43520;DHT22;46848;51.980;5.918;2023-05-14T08:51:58;26.80;49.80
43520;DHT22;46848;51.980;5.918;2023-05-14T08:54:25;26.80;49.60
43520;DHT22;46848;51.980;5.918;2023-05-14T08:56:52;26.80;49.20
43520;DHT22;46848;51.980;5.918;2023-05-14T08:59:18;26.80;48.50
43520;DHT22;46848;51.980;5.918;2023-05-14T09:01:46;26.80;48.00
43520;DHT22;46848;51.980;5.918;2023-05-14T09:04:14;26.80;47.20
43520;DHT22;46848;51.980;5.918;2023-05-14T09:06:41;26.80;47.60
43520;DHT22;46848;51.980;5.918;2023-05-14T09:09:08;26.80;47.60
43520;DHT22;46848;51.980;5.918;2023-05-14T09:11:49;26.90;47.70
43520;DHT22;46848;51.980;5.918;2023-05-14T09:14:15;27.00;47.00
43520;DHT22;46848;51.980;5.918;2023-05-14T09:16:44;27.40;47.50
43520;DHT22;46848;51.980;5.918;2023-05-14T09:19:11;27.60;47.80
43520;DHT22;46848;51.980;5.918;2023-05-14T09:21:36;27.90;47.10
43520;DHT22;46848;51.980;5.918;2023-05-14T09:24:03;28.10;46.20
43520;DHT22;46848;51.980;5.918;2023-05-14T09:26:31;28.20;45.60
43520;DHT22;46848;51.980;5.918;2023-05-14T09:28:58;28.40;45.30
43520;DHT22;46848;51.980;5.918;2023-05-14T09:31:30;28.70;44.80
43520;DHT22;46848;51.980;5.918;2023-05-14T09:33:56;28.80;43.90
43520;DHT22;46848;51.980;5.918;2023-05-14T09:36:22;28.70;42.90
43520;DHT22;46848;51.980;5.918;2023-05-14T09:38:49;28.70;42.70
43520;DHT22;46848;51.980;5.918;2023-05-14T09:41:15;28.70;42.70
43520;DHT22;46848;51.980;5.918;2023-05-14T09:43:40;28.80;43.00
43520;DHT22;46848;51.980;5.918;2023-05-14T09:46:06;28.90;42.90
43520;DHT22;46848;51.980;5.918;2023-05-14T09:48:32;29.10;43.10
43520;DHT22;46848;51.980;5.918;2023-05-14T09:50:57;29.10;41.60
43520;DHT22;46848;51.980;5.918;2023-05-14T09:53:23;29.10;41.50
43520;DHT22;46848;51.980;5.918;2023-05-14T09:55:49;29.10;40.20
43520;DHT22;46848;51.980;5.918;2023-05-14T09:58:15;29.00;41.90
43520;DHT22;46848;51.980;5.918;2023-05-14T10:00:45;29.10;41.90
43520;DHT22;46848;51.980;5.918;2023-05-14T10:03:13;29.20;41.80
43520;DHT22;46848;51.980;5.918;2023-05-14T10:05:40;29.40;40.90
43520;DHT22;46848;51.980;5.918;2023-05-14T10:08:12;29.60;41.10
43520;DHT22;46848;51.980;5.918;2023-05-14T10:10:38;29.70;41.00
43520;DHT22;46848;51.980;5.918;2023-05-14T10:13:13;29.70;40.00
43520;DHT22;46848;51.980;5.918;2023-05-14T10:15:42;29.70;40.40
43520;DHT22;46848;51.980;5.918;2023-05-14T10:18:15;29.70;40.50
43520;DHT22;46848;51.980;5.918;2023-05-14T10:20:42;29.60;41.00
43520;DHT22;46848;51.980;5.918;2023-05-14T10:23:08;29.40;39.90
43520;DHT22;46848;51.980;5.918;2023-05-14T10:25:34;29.20;39.90
43520;DHT22;46848;51.980;5.918;2023-05-14T10:28:01;29.10;41.80
43520;DHT22;46848;51.980;5.918;2023-05-14T10:30:27;29.10;40.50
43520;DHT22;46848;51.980;5.918;2023-05-14T10:33:13;29.00;41.70
43520;DHT22;46848;51.980;5.918;2023-05-14T10:35:59;28.70;36.50
43520;DHT22;46848;51.980;5.918;2023-05-14T10:38:36;28.60;39.90
43520;DHT22;46848;51.980;5.918;2023-05-14T10:41:04;28.60;41.20
43520;DHT22;46848;51.980;5.918;2023-05-14T10:43:33;28.70;41.50
43520;DHT22;46848;51.980;5.918;2023-05-14T10:46:00;28.70;41.40
43520;DHT22;46848;51.980;5.918;2023-05-14T10:48:27;28.70;41.80
43520;DHT22;46848;51.980;5.918;2023-05-14T10:50:54;28.70;41.80
43520;DHT22;46848;51.980;5.918;2023-05-14T10:53:32;28.70;42.30
43520;DHT22;46848;51.980;5.918;2023-05-14T10:56:09;28.70;40.50
43520;DHT22;46848;51.980;5.918;2023-05-14T10:58:39;28.60;41.50
43520;DHT22;46848;51.980;5.918;2023-05-14T11:01:06;28.40;41.90
43520;DHT22;46848;51.980;5.918;2023-05-14T11:03:41;28.20;41.80
43520;DHT22;46848;51.980;5.918;2023-05-14T11:06:08;28.10;43.10
43520;DHT22;46848;51.980;5.918;2023-05-14T11:08:34;28.10;43.50
43520;DHT22;46848;51.980;5.918;2023-05-14T11:11:01;28.10;42.60
43520;DHT22;46848;51.980;5.918;2023-05-14T11:13:28;28.00;42.20
43520;DHT22;46848;51.980;5.918;2023-05-14T11:15:54;28.00;42.20
43520;DHT22;46848;51.980;5.918;2023-05-14T11:18:31;27.90;41.70
43520;DHT22;46848;51.980;5.918;2023-05-14T11:21:06;27.80;41.10
43520;DHT22;46848;51.980;5.918;2023-05-14T11:23:31;27.80;41.60
43520;DHT22;46848;51.980;5.918;2023-05-14T11:25:57;27.70;41.70
43520;DHT22;46848;51.980;5.918;2023-05-14T11:28:24;27.50;41.70
43520;DHT22;46848;51.980;5.918;2023-05-14T11:30:51;27.50;41.90
43520;DHT22;46848;51.980;5.918;2023-05-14T11:33:18;27.40;41.50
43520;DHT22;46848;51.980;5.918;2023-05-14T11:35:44;27.20;40.00
43520;DHT22;46848;51.980;5.918;2023-05-14T11:38:18;27.10;41.70
43520;DHT22;46848;51.980;5.918;2023-05-14T11:40:58;27.00;41.40
43520;DHT22;46848;51.980;5.918;2023-05-14T11:43:24;26.90;41.60
43520;DHT22;46848;51.980;5.918;2023-05-14T11:45:54;26.80;42.00
43520;DHT22;46848;51.980;5.918;2023-05-14T11:48:20;26.70;42.90
43520;DHT22;46848;51.980;5.918;2023-05-14T11:50:47;26.50;43.10
43520;DHT22;46848;51.980;5.918;2023-05-14T11:53:32;26.50;42.40
43520;DHT22;46848;51.980;5.918;2023-05-14T11:55:57;26.50;41.40
43520;DHT22;46848;51.980;5.918;2023-05-14T11:58:24;26.50;43.30
43520;DHT22;46848;51.980;5.918;2023-05-14T12:00:50;26.30;43.70
43520;DHT22;46848;51.980;5.918;2023-05-14T12:03:17;26.30;44.60
43520;DHT22;46848;51.980;5.918;2023-05-14T12:06:08;26.30;43.80
43520;DHT22;46848;51.980;5.918;2023-05-14T12:08:34;26.30;42.80
43520;DHT22;46848;51.980;5.918;2023-05-14T12:11:02;26.30;43.40
43520;DHT22;46848;51.980;5.918;2023-05-14T12:13:31;26.20;42.70
43520;DHT22;46848;51.980;5.918;2023-05-14T12:16:00;26.30;42.40
43520;DHT22;46848;51.980;5.918;2023-05-14T12:18:28;26.30;40.70
43520;DHT22;46848;51.980;5.918;2023-05-14T12:20:54;26.20;41.20
43520;DHT22;46848;51.980;5.918;2023-05-14T12:23:30;26.20;40.20
43520;DHT22;46848;51.980;5.918;2023-05-14T12:26:07;26.20;40.40
43520;DHT22;46848;51.980;5.918;2023-05-14T12:28:33;26.20;40.40
43520;DHT22;46848;51.980;5.918;2023-05-14T12:30:59;26.20;40.50
43520;DHT22;46848;51.980;5.918;2023-05-14T12:33:26;26.10;38.10
43520;DHT22;46848;51.980;5.918;2023-05-14T12:35:54;26.00;38.10
43520;DHT22;46848;51.980;5.918;2023-05-14T12:38:26;26.00;38.30
43520;DHT22;46848;51.980;5.918;2023-05-14T12:40:52;26.00;39.40
43520;DHT22;46848;51.980;5.918;2023-05-14T12:43:18;26.00;39.20
43520;DHT22;46848;51.980;5.918;2023-05-14T12:45:44;26.10;38.60
43520;DHT22;46848;51.980;5.918;2023-05-14T12:48:10;26.20;37.10
43520;DHT22;46848;51.980;5.918;2023-05-14T12:50:37;26.20;37.00
43520;DHT22;46848;51.980;5.918;2023-05-14T12:53:04;26.30;37.90
43520;DHT22;46848;51.980;5.918;2023-05-14T12:55:30;26.40;37.50
43520;DHT22;46848;51.980;5.918;2023-05-14T12:57:56;26.40;36.40
43520;DHT22;46848;51.980;5.918;2023-05-14T13:00:22;26.40;35.10
43520;DHT22;46848;51.980;5.918;2023-05-14T13:02:47;26.30;36.30
43520;DHT22;46848;51.980;5.918;2023-05-14T13:05:13;26.30;36.60
43520;DHT22;46848;51.980;5.918;2023-05-14T13:07:39;26.40;36.60
43520;DHT22;46848;51.980;5.918;2023-05-14T13:10:05;26.60;37.00
43520;DHT22;46848;51.980;5.918;2023-05-14T13:12:31;26.70;38.40
43520;DHT22;46848;51.980;5.918;2023-05-14T13:14:57;26.80;39.40
43520;DHT22;46848;51.980;5.918;2023-05-14T13:17:22;26.90;40.50
43520;DHT22;46848;51.980;5.918;2023-05-14T13:19:48;27.00;42.00
43520;DHT22;46848;51.980;5.918;2023-05-14T13:22:15;27.10;42.80
43520;DHT22;46848;51.980;5.918;2023-05-14T13:24:43;27.10;43.20
43520;DHT22;46848;51.980;5.918;2023-05-14T13:27:08;27.20;43.40
43520;DHT22;46848;51.980;5.918;2023-05-14T13:29:34;27.20;43.70
43520;DHT22;46848;51.980;5.918;2023-05-14T13:31:59;27.10;43.60
43520;DHT22;46848;51.980;5.918;2023-05-14T13:34:25;27.10;43.70
43520;DHT22;46848;51.980;5.918;2023-05-14T13:36:51;27.00;43.90
43520;DHT22;46848;51.980;5.918;2023-05-14T13:39:16;27.00;43.90
43520;DHT22;46848;51.980;5.918;2023-05-14T13:41:47;26.90;43.80
43520;DHT22;46848;51.980;5.918;2023-05-14T13:44:12;26.90;44.00
43520;DHT22;46848;51.980;5.918;2023-05-14T13:46:38;26.80;44.50
43520;DHT22;46848;51.980;5.918;2023-05-14T13:49:03;26.70;44.00
43520;DHT22;46848;51.980;5.918;2023-05-14T13:51:29;26.60;43.90
43520;DHT22;46848;51.980;5.918;2023-05-14T13:53:55;26.50;44.20
43520;DHT22;46848;51.980;5.918;2023-05-14T13:56:21;26.50;44.30
43520;DHT22;46848;51.980;5.918;2023-05-14T13:58:46;26.40;44.20
43520;DHT22;46848;51.980;5.918;2023-05-14T14:01:12;26.40;44.30
43520;DHT22;46848;51.980;5.918;2023-05-14T14:03:38;26.40;44.30
43520;DHT22;46848;51.980;5.918;2023-05-14T14:06:03;26.30;44.20
43520;DHT22;46848;51.980;5.918;2023-05-14T14:08:29;26.30;44.40
43520;DHT22;46848;51.980;5.918;2023-05-14T14:10:55;26.20;44.80
43520;DHT22;46848;51.980;5.918;2023-05-14T14:13:21;26.20;44.60
43520;DHT22;46848;51.980;5.918;2023-05-14T14:15:47;26.20;44.40
43520;DHT22;46848;51.980;5.918;2023-05-14T14:18:14;26.20;44.50
43520;DHT22;46848;51.980;5.918;2023-05-14T14:20:40;26.10;44.60
43520;DHT22;46848;51.980;5.918;2023-05-14T14:23:06;26.10;44.60
43520;DHT22;46848;51.980;5.918;2023-05-14T14:25:32;26.10;44.50
43520;DHT22;46848;51.980;5.918;2023-05-14T14:27:57;26.00;44.30
43520;DHT22;46848;51.980;5.918;2023-05-14T14:30:24;26.00;44.30
43520;DHT22;46848;51.980;5.918;2023-05-14T14:32:50;26.00;44.30
43520;DHT22;46848;51.980;5.918;2023-05-14T14:35:16;26.00;44.30
43520;DHT22;46848;51.980;5.918;2023-05-14T14:37:43;26.10;44.90
43520;DHT22;46848;51.980;5.918;2023-05-14T14:40:13;26.10;44.20
43520;DHT22;46848;51.980;5.918;2023-05-14T14:42:38;26.10;44.30
43520;DHT22;46848;51.980;5.918;2023-05-14T14:45:05;26.10;44.80
43520;DHT22;46848;51.980;5.918;2023-05-14T14:47:30;25.90;45.00
43520;DHT22;46848;51.980;5.918;2023-05-14T14:49:56;25.80;45.10
43520;DHT22;46848;51.980;5.918;2023-05-14T14:52:23;25.70;45.30
43520;DHT22;46848;51.980;5.918;2023-05-14T14:54:49;25.60;45.20
43520;DHT22;46848;51.980;5.918;2023-05-14T14:57:14;25.60;45.10
43520;DHT22;46848;51.980;5.918;2023-05-14T14:59:40;25.60;45.40
43520;DHT22;46848;51.980;5.918;2023-05-14T15:02:07;25.50;45.30
43520;DHT22;46848;51.980;5.918;2023-05-14T15:04:33;25.50;45.30
43520;DHT22;46848;51.980;5.918;2023-05-14T15:07:00;25.50;45.30
43520;DHT22;46848;51.980;5.918;2023-05-14T15:09:25;25.40;44.80
43520;DHT22;46848;51.980;5.918;2023-05-14T15:11:51;25.40;45.00
43520;DHT22;46848;51.980;5.918;2023-05-14T15:14:16;25.40;45.00
43520;DHT22;46848;51.980;5.918;2023-05-14T15:16:42;25.30;44.80
43520;DHT22;46848;51.980;5.918;2023-05-14T15:19:08;25.20;45.00
43520;DHT22;46848;51.980;5.918;2023-05-14T15:21:34;25.10;44.30
43520;DHT22;46848;51.980;5.918;2023-05-14T15:24:02;25.00;44.60
43520;DHT22;46848;51.980;5.918;2023-05-14T15:26:28;25.00;44.80
43520;DHT22;46848;51.980;5.918;2023-05-14T15:28:55;25.00;45.00
43520;DHT22;46848;51.980;5.918;2023-05-14T15:31:22;25.00;44.90